createdAt,value
2023-11-22T00:01:22.826Z,3.90
2023-11-22T00:03:51.297Z,3.40
2023-11-22T00:06:21.428Z,4.23
2023-11-22T00:08:48.283Z,4.57
2023-11-22T00:11:15.623Z,4.20
2023-11-22T00:13:42.504Z,4.00
2023-11-22T00:16:10.013Z,3.77
2023-11-22T00:18:38.489Z,3.63
2023-11-22T00:21:05.378Z,4.03
2023-11-22T00:23:32.272Z,3.60
2023-11-22T00:25:59.150Z,2.90
2023-11-22T00:28:26.015Z,3.47
2023-11-22T00:30:52.816Z,3.33
2023-11-22T00:33:21.080Z,3.70
2023-11-22T00:35:48.348Z,3.57
2023-11-22T00:38:15.140Z,3.47
2023-11-22T00:40:41.944Z,4.23
2023-11-22T00:43:09.567Z,3.33
2023-11-22T00:45:36.685Z,3.40
2023-11-22T00:48:03.515Z,3.27
2023-11-22T00:50:30.380Z,3.80
2023-11-22T00:52:57.257Z,4.17
2023-11-22T00:55:24.139Z,3.77
2023-11-22T00:57:50.955Z,3.10
2023-11-22T01:00:18.253Z,3.53
2023-11-22T01:02:45.440Z,3.80
2023-11-22T01:05:12.922Z,3.23
2023-11-22T01:07:40.198Z,4.07
2023-11-22T01:10:07.670Z,4.57
2023-11-22T01:12:34.635Z,5.33
2023-11-22T01:15:01.481Z,4.40
2023-11-22T01:17:28.493Z,4.60
2023-11-22T01:19:55.533Z,5.77
2023-11-22T01:22:22.435Z,5.10
2023-11-22T01:24:49.894Z,4.63
2023-11-22T01:27:16.770Z,5.10
2023-11-22T01:29:43.627Z,5.67
2023-11-22T01:32:10.443Z,5.80
2023-11-22T01:34:37.277Z,5.67
2023-11-22T01:37:04.674Z,5.50
2023-11-22T01:39:32.582Z,5.60
2023-11-22T01:41:59.449Z,6.37
2023-11-22T01:44:27.827Z,6.37
2023-11-22T01:46:55.362Z,5.77
2023-11-22T01:49:24.841Z,6.30
2023-11-22T01:51:51.897Z,4.87
2023-11-22T01:54:20.816Z,7.43
2023-11-22T01:56:47.905Z,6.03
2023-11-22T01:59:15.243Z,5.93
2023-11-22T02:01:43.642Z,6.80
2023-11-22T02:04:12.998Z,5.63
2023-11-22T02:06:39.996Z,6.20
2023-11-22T02:09:06.823Z,6.97
2023-11-22T02:11:34.562Z,6.57
2023-11-22T02:14:01.422Z,6.13
2023-11-22T02:16:29.048Z,6.07
2023-11-22T02:18:56.387Z,5.27
2023-11-22T02:21:23.212Z,5.47
2023-11-22T02:23:50.097Z,5.47
2023-11-22T02:26:19.033Z,5.77
2023-11-22T02:28:46.240Z,7.10
2023-11-22T02:31:14.106Z,6.13
2023-11-22T02:33:40.992Z,5.30
2023-11-22T02:36:08.924Z,6.10
2023-11-22T02:38:36.321Z,5.70
2023-11-22T02:41:03.702Z,5.67
2023-11-22T02:43:30.861Z,6.40
2023-11-22T02:45:58.702Z,5.63
2023-11-22T02:48:25.537Z,6.10
2023-11-22T02:50:55.178Z,6.23
2023-11-22T02:53:22.632Z,6.20
2023-11-22T02:55:50.042Z,7.17
2023-11-22T02:58:17.522Z,6.40
2023-11-22T03:00:44.776Z,6.73
2023-11-22T03:03:12.996Z,6.30
2023-11-22T03:05:41.184Z,7.33
2023-11-22T03:08:11.253Z,6.80
2023-11-22T03:10:38.794Z,6.57
2023-11-22T03:13:06.450Z,7.03
2023-11-22T03:15:33.273Z,7.10
2023-11-22T03:18:00.279Z,7.70
2023-11-22T03:20:27.900Z,7.53
2023-11-22T03:22:54.689Z,7.80
2023-11-22T03:25:21.508Z,7.63
2023-11-22T03:27:48.379Z,8.03
2023-11-22T03:30:16.327Z,7.80
2023-11-22T03:32:45.065Z,8.33
2023-11-22T03:35:13.192Z,8.03
2023-11-22T03:37:40.147Z,7.83
2023-11-22T03:40:07.659Z,7.87
2023-11-22T03:42:36.762Z,8.27
2023-11-22T03:45:04.070Z,8.67
2023-11-22T03:47:30.991Z,7.87
2023-11-22T03:49:58.126Z,7.80
2023-11-22T03:52:24.994Z,7.57
2023-11-22T03:54:51.773Z,7.80
2023-11-22T03:57:18.571Z,7.77
2023-11-22T03:59:45.416Z,8.00
2023-11-22T04:02:12.190Z,8.00
2023-11-22T04:04:40.862Z,7.93
2023-11-22T04:07:08.893Z,8.63
2023-11-22T04:09:36.059Z,8.00
2023-11-22T04:12:02.885Z,9.00
2023-11-22T04:14:29.762Z,8.20
2023-11-22T04:16:56.901Z,9.60
2023-11-22T04:19:23.961Z,9.93
2023-11-22T04:21:51.175Z,8.07
2023-11-22T04:24:18.834Z,8.30
2023-11-22T04:26:46.009Z,8.53
2023-11-22T04:29:17.501Z,9.33
2023-11-22T04:31:44.377Z,9.30
2023-11-22T04:34:11.169Z,8.43
2023-11-22T04:36:39.745Z,9.43
2023-11-22T04:39:08.255Z,9.20
2023-11-22T04:41:36.238Z,8.93
2023-11-22T04:44:03.360Z,8.70
2023-11-22T04:46:30.337Z,8.90
2023-11-22T04:48:58.599Z,9.43
2023-11-22T04:51:25.565Z,9.17
2023-11-22T04:53:52.577Z,8.67
2023-11-22T04:56:19.481Z,9.87
2023-11-22T04:58:46.465Z,8.97
2023-11-22T05:01:13.882Z,9.57
2023-11-22T05:03:41.550Z,9.30
2023-11-22T05:06:08.417Z,8.60
2023-11-22T05:08:35.707Z,9.50
2023-11-22T05:11:04.022Z,9.07
2023-11-22T05:13:30.980Z,9.23
2023-11-22T05:15:57.821Z,8.87
2023-11-22T05:18:24.722Z,7.97
2023-11-22T05:20:51.631Z,9.27
2023-11-22T05:23:19.293Z,9.27
2023-11-22T05:25:46.186Z,9.33
2023-11-22T05:28:13.356Z,10.03
2023-11-22T05:30:40.185Z,9.57
2023-11-22T05:33:07.015Z,10.17
2023-11-22T05:35:34.584Z,10.17
2023-11-22T05:38:01.414Z,10.27
2023-11-22T05:40:28.157Z,10.53
2023-11-22T05:42:54.908Z,10.57
2023-11-22T05:45:21.800Z,10.30
2023-11-22T05:47:48.706Z,10.23
2023-11-22T05:50:15.671Z,10.77
2023-11-22T05:52:42.636Z,10.13
2023-11-22T05:55:09.791Z,10.23
2023-11-22T05:57:36.579Z,10.90
2023-11-22T06:00:03.819Z,9.60
2023-11-22T06:02:30.617Z,9.90
2023-11-22T06:04:57.537Z,8.43
2023-11-22T06:07:24.356Z,9.77
2023-11-22T06:09:52.851Z,10.70
2023-11-22T06:12:21.589Z,9.30
2023-11-22T06:14:48.442Z,9.00
2023-11-22T06:17:15.501Z,9.30
2023-11-22T06:19:42.776Z,8.73
2023-11-22T06:22:09.673Z,9.47
2023-11-22T06:24:37.366Z,8.13
2023-11-22T06:27:05.267Z,8.37
2023-11-22T06:29:32.095Z,8.97
2023-11-22T06:31:59.323Z,7.90
2023-11-22T06:34:26.082Z,8.63
2023-11-22T06:36:52.887Z,8.20
2023-11-22T06:39:19.644Z,8.43
2023-11-22T06:41:47.152Z,8.63
2023-11-22T06:44:14.234Z,9.37
2023-11-22T06:46:41.080Z,9.03
2023-11-22T06:49:07.912Z,9.00
2023-11-22T06:51:34.800Z,8.60
2023-11-22T06:54:02.263Z,8.97
2023-11-22T06:56:29.915Z,8.50
2023-11-22T06:58:58.751Z,9.97
2023-11-22T07:01:28.409Z,9.23
2023-11-22T07:03:55.466Z,9.63
2023-11-22T07:06:23.716Z,9.40
2023-11-22T07:08:51.403Z,9.20
2023-11-22T07:11:25.144Z,9.53
2023-11-22T07:13:53.021Z,9.63
2023-11-22T07:16:20.312Z,9.80
2023-11-22T07:18:47.474Z,10.23
2023-11-22T07:21:14.378Z,10.40
2023-11-22T07:23:41.415Z,8.87
2023-11-22T07:26:08.691Z,10.93
2023-11-22T07:28:37.162Z,9.37
2023-11-22T07:31:07.325Z,9.90
2023-11-22T07:33:34.628Z,10.40
2023-11-22T07:36:01.554Z,9.53
2023-11-22T07:38:28.734Z,10.30
2023-11-22T07:40:55.566Z,10.63
2023-11-22T07:43:22.360Z,11.03
2023-11-22T07:45:49.977Z,9.50
2023-11-22T07:48:17.054Z,9.20
2023-11-22T07:50:50.330Z,9.80
2023-11-22T07:53:18.807Z,9.93
2023-11-22T07:55:45.865Z,9.57
2023-11-22T07:58:12.666Z,10.20
2023-11-22T08:00:39.492Z,9.67
2023-11-22T08:03:07.997Z,8.93
2023-11-22T08:05:41.239Z,8.40
2023-11-22T08:08:09.491Z,10.10
2023-11-22T08:10:37.025Z,10.53
2023-11-22T08:13:04.569Z,9.40
2023-11-22T08:15:34.586Z,9.37
2023-11-22T08:18:04.404Z,9.90
2023-11-22T08:20:32.115Z,9.90
2023-11-22T08:22:58.967Z,8.90
2023-11-22T08:25:25.748Z,8.87
2023-11-22T08:27:52.536Z,8.37
2023-11-22T08:30:19.570Z,8.77
2023-11-22T08:32:55.408Z,7.50
2023-11-22T08:35:24.583Z,8.30
2023-11-22T08:38:03.428Z,8.57
2023-11-22T08:40:30.488Z,8.03
2023-11-22T08:42:57.405Z,7.97
2023-11-22T08:45:24.223Z,6.77
2023-11-22T08:47:52.575Z,7.77
2023-11-22T08:50:20.617Z,6.50
2023-11-22T08:52:48.246Z,6.60
2023-11-22T08:55:16.048Z,6.67
2023-11-22T08:57:43.089Z,6.97
2023-11-22T09:00:10.892Z,6.97
2023-11-22T09:02:38.964Z,6.67
2023-11-22T09:05:09.297Z,6.47
2023-11-22T09:07:36.943Z,6.93
2023-11-22T09:10:11.549Z,6.23
2023-11-22T09:12:40.620Z,6.23
2023-11-22T09:15:17.077Z,6.70
2023-11-22T09:17:44.985Z,7.50
2023-11-22T09:20:16.069Z,6.07
2023-11-22T09:22:50.982Z,6.23
2023-11-22T09:25:31.968Z,5.53
2023-11-22T09:28:02.173Z,5.90
2023-11-22T09:30:34.258Z,5.80
2023-11-22T09:33:06.624Z,6.17
2023-11-22T09:35:33.844Z,6.40
2023-11-22T09:38:13.415Z,6.50
2023-11-22T09:40:48.473Z,6.93
2023-11-22T09:43:19.191Z,5.63
2023-11-22T09:45:54.272Z,6.20
2023-11-22T09:48:26.342Z,6.00
2023-11-22T09:51:12.714Z,6.50
2023-11-22T09:53:59.696Z,6.67
2023-11-22T09:56:28.052Z,5.87
2023-11-22T09:58:57.558Z,6.47
2023-11-22T10:01:24.956Z,6.77
2023-11-22T10:03:52.284Z,5.67
2023-11-22T10:06:19.455Z,5.53
2023-11-22T10:08:50.808Z,6.63
2023-11-22T10:11:19.249Z,6.60
2023-11-22T10:13:54.208Z,5.93
2023-11-22T10:16:22.236Z,6.23
2023-11-22T10:18:50.583Z,5.83
2023-11-22T10:21:25.747Z,6.00
2023-11-22T10:24:03.354Z,6.10
2023-11-22T10:26:30.574Z,6.13
2023-11-22T10:28:58.507Z,6.33
2023-11-22T10:31:26.062Z,5.63
2023-11-22T10:33:54.611Z,5.10
2023-11-22T10:36:23.179Z,5.30
2023-11-22T10:38:50.232Z,5.57
2023-11-22T10:41:17.468Z,5.80
2023-11-22T10:43:46.268Z,5.60
2023-11-22T10:46:15.216Z,5.30
2023-11-22T10:48:43.037Z,5.83
2023-11-22T10:51:14.121Z,4.97
2023-11-22T10:53:53.971Z,5.03
2023-11-22T10:56:22.477Z,6.10
2023-11-22T10:58:52.218Z,6.07
2023-11-22T11:01:25.451Z,5.87
2023-11-22T11:04:12.747Z,5.17
2023-11-22T11:06:40.473Z,5.03
2023-11-22T11:09:10.234Z,5.73
2023-11-22T11:11:40.051Z,5.03
2023-11-22T11:14:10.354Z,5.70
2023-11-22T11:16:42.721Z,5.67
2023-11-22T11:19:11.174Z,4.97
2023-11-22T11:21:38.069Z,5.00
2023-11-22T11:24:05.121Z,5.60
2023-11-22T11:26:38.996Z,5.30
2023-11-22T11:29:07.255Z,5.37
2023-11-22T11:31:40.506Z,4.73
2023-11-22T11:34:08.955Z,4.90
2023-11-22T11:36:39.052Z,5.40
2023-11-22T11:39:15.408Z,5.10
2023-11-22T11:41:43.162Z,5.97
2023-11-22T11:44:13.936Z,5.40
2023-11-22T11:46:41.315Z,5.40
2023-11-22T11:49:09.755Z,4.90
2023-11-22T11:51:37.525Z,5.50
2023-11-22T11:54:04.530Z,5.33
2023-11-22T11:56:33.354Z,5.80
2023-11-22T11:59:00.828Z,5.30
2023-11-22T12:01:34.151Z,4.40
2023-11-22T12:04:04.973Z,5.20
2023-11-22T12:06:38.030Z,4.70
2023-11-22T12:09:05.154Z,4.53
2023-11-22T12:11:32.054Z,6.50
2023-11-22T12:14:00.040Z,4.63
2023-11-22T12:16:28.376Z,4.53
2023-11-22T12:18:56.169Z,4.50
2023-11-22T12:21:23.286Z,4.70
2023-11-22T12:23:50.686Z,4.70
2023-11-22T12:26:20.319Z,4.77
2023-11-22T12:28:57.228Z,4.50
2023-11-22T12:31:31.573Z,4.40
2023-11-22T12:34:00.188Z,4.73
2023-11-22T12:36:27.125Z,5.13
2023-11-22T12:38:59.686Z,4.60
2023-11-22T12:41:30.495Z,4.80
2023-11-22T12:44:07.915Z,4.60
2023-11-22T12:46:59.019Z,4.40
2023-11-22T12:49:29.316Z,5.43
2023-11-22T12:52:00.395Z,3.90
2023-11-22T12:54:27.545Z,4.23
2023-11-22T12:56:59.884Z,3.87
2023-11-22T12:59:29.153Z,4.40
2023-11-22T13:01:57.074Z,4.33
2023-11-22T13:04:24.110Z,4.20
2023-11-22T13:06:51.821Z,3.57
2023-11-22T13:09:19.039Z,3.50
2023-11-22T13:11:46.907Z,4.20
2023-11-22T13:14:15.623Z,3.77
2023-11-22T13:16:43.879Z,4.33
2023-11-22T13:19:10.631Z,3.97
2023-11-22T13:21:37.575Z,3.80
2023-11-22T13:24:06.189Z,3.37
2023-11-22T13:26:33.057Z,3.73
2023-11-22T13:29:00.232Z,3.00
2023-11-22T13:31:27.063Z,3.23
2023-11-22T13:33:53.966Z,3.43
2023-11-22T13:36:20.790Z,3.57
2023-11-22T13:38:47.588Z,3.83
2023-11-22T13:41:14.390Z,3.03
2023-11-22T13:43:41.246Z,3.40
2023-11-22T13:46:11.434Z,3.60
2023-11-22T13:48:38.348Z,3.37
2023-11-22T13:51:07.959Z,3.70
2023-11-22T13:53:37.916Z,4.03
2023-11-22T13:56:10.053Z,3.30
2023-11-22T13:58:37.183Z,3.50
2023-11-22T14:01:07.487Z,3.27
2023-11-22T14:03:34.763Z,3.30
2023-11-22T14:06:01.856Z,3.50
2023-11-22T14:08:28.945Z,3.07
2023-11-22T14:10:55.827Z,3.57
2023-11-22T14:13:22.817Z,3.37
2023-11-22T14:15:49.775Z,3.60
2023-11-22T14:18:18.527Z,3.33
2023-11-22T14:20:45.670Z,3.63
2023-11-22T14:23:12.474Z,2.70
2023-11-22T14:25:41.075Z,3.80
2023-11-22T14:28:09.917Z,3.33
2023-11-22T14:30:38.164Z,3.13
2023-11-22T14:33:09.064Z,3.33
2023-11-22T14:35:37.071Z,3.13
2023-11-22T14:38:06.978Z,3.23
2023-11-22T14:40:34.396Z,3.30
2023-11-22T14:43:04.013Z,3.40
2023-11-22T14:45:31.889Z,2.80
2023-11-22T14:47:59.106Z,2.77
2023-11-22T14:50:29.727Z,3.20
2023-11-22T14:52:57.276Z,3.20
2023-11-22T14:55:26.863Z,2.80
2023-11-22T14:57:58.462Z,3.47
2023-11-22T15:00:26.255Z,3.03
2023-11-22T15:02:55.381Z,2.77
2023-11-22T15:05:23.658Z,2.83
2023-11-22T15:07:56.214Z,3.30
2023-11-22T15:10:23.538Z,3.13
2023-11-22T15:12:50.404Z,2.93
2023-11-22T15:15:19.890Z,3.03
2023-11-22T15:17:47.320Z,3.00
2023-11-22T15:20:16.842Z,2.87
2023-11-22T15:22:44.317Z,2.70
2023-11-22T15:25:11.315Z,3.73
2023-11-22T15:27:38.068Z,3.07
2023-11-22T15:30:08.529Z,2.83
2023-11-22T15:32:35.389Z,2.83
2023-11-22T15:35:03.032Z,2.80
2023-11-22T15:37:30.516Z,2.63
2023-11-22T15:39:57.533Z,2.83
2023-11-22T15:42:24.353Z,2.87
2023-11-22T15:44:52.697Z,3.10
2023-11-22T15:47:20.649Z,3.10
2023-11-22T15:49:47.512Z,3.30
2023-11-22T15:52:14.257Z,3.63
2023-11-22T15:54:41.060Z,2.70
2023-11-22T15:57:07.893Z,2.77
2023-11-22T15:59:34.727Z,2.23
2023-11-22T16:02:02.492Z,2.97
2023-11-22T16:04:29.371Z,2.63
2023-11-22T16:06:56.162Z,2.77
2023-11-22T16:09:22.966Z,2.77
2023-11-22T16:11:49.807Z,3.00
2023-11-22T16:14:16.715Z,3.60
2023-11-22T16:16:43.851Z,2.93
2023-11-22T16:19:11.825Z,3.77
2023-11-22T16:21:40.629Z,3.00
2023-11-22T16:24:08.232Z,3.20
2023-11-22T16:26:35.260Z,3.20
2023-11-22T16:29:02.115Z,5.57
2023-11-22T16:31:29.188Z,4.63
2023-11-22T16:33:58.614Z,4.40
2023-11-22T16:36:25.568Z,4.87
2023-11-22T16:38:53.417Z,3.90
2023-11-22T16:41:22.294Z,3.53
2023-11-22T16:43:49.129Z,4.47
2023-11-22T16:46:15.988Z,4.00
2023-11-22T16:48:43.194Z,3.90
2023-11-22T16:51:10.207Z,3.87
2023-11-22T16:53:41.319Z,2.87
2023-11-22T16:56:08.474Z,3.30
2023-11-22T16:58:35.465Z,3.47
2023-11-22T17:01:02.365Z,3.50
2023-11-22T17:03:29.372Z,3.43
2023-11-22T17:05:56.440Z,3.83
2023-11-22T17:08:24.010Z,3.63
2023-11-22T17:10:51.076Z,3.87
2023-11-22T17:13:17.900Z,3.67
2023-11-22T17:15:45.331Z,4.00
2023-11-22T17:18:13.379Z,4.03
2023-11-22T17:20:40.685Z,4.30
2023-11-22T17:23:07.616Z,4.63
2023-11-22T17:25:34.391Z,5.00
2023-11-22T17:28:01.352Z,4.70
2023-11-22T17:30:29.018Z,4.33
2023-11-22T17:32:56.076Z,5.07
2023-11-22T17:35:23.104Z,5.03
2023-11-22T17:37:58.233Z,4.30
2023-11-22T17:40:25.440Z,4.33
2023-11-22T17:42:52.243Z,3.80
2023-11-22T17:45:19.019Z,3.40
2023-11-22T17:47:46.073Z,3.80
2023-11-22T17:50:13.288Z,3.70
2023-11-22T17:52:40.760Z,3.20
2023-11-22T17:55:07.598Z,3.60
2023-11-22T17:57:34.503Z,2.93
2023-11-22T18:00:01.430Z,3.00
2023-11-22T18:02:28.721Z,2.87
2023-11-22T18:04:55.526Z,2.60
2023-11-22T18:07:23.300Z,2.83
2023-11-22T18:09:51.670Z,2.73
2023-11-22T18:12:19.119Z,2.60
2023-11-22T18:14:46.835Z,2.20
2023-11-22T18:17:13.899Z,3.17
2023-11-22T18:19:40.921Z,2.77
2023-11-22T18:22:08.727Z,2.00
2023-11-22T18:24:36.300Z,2.73
2023-11-22T18:27:04.788Z,3.10
2023-11-22T18:29:31.756Z,3.07
2023-11-22T18:32:00.141Z,3.33
2023-11-22T18:34:33.794Z,2.73
2023-11-22T18:37:03.876Z,2.80
2023-11-22T18:39:32.364Z,2.83
2023-11-22T18:42:01.277Z,3.00
2023-11-22T18:44:29.069Z,3.40
2023-11-22T18:46:56.747Z,2.90
2023-11-22T18:49:24.939Z,3.23
2023-11-22T18:51:53.133Z,2.77
2023-11-22T18:54:22.349Z,2.93
2023-11-22T18:56:50.026Z,2.40
2023-11-22T18:59:17.753Z,2.13
2023-11-22T19:01:50.435Z,2.33
2023-11-22T19:04:17.448Z,2.40
2023-11-22T19:06:44.653Z,2.40
2023-11-22T19:09:12.615Z,2.83
2023-11-22T19:11:40.259Z,2.80
2023-11-22T19:14:07.134Z,2.80
2023-11-22T19:16:34.745Z,2.10
2023-11-22T19:19:02.321Z,2.37
2023-11-22T19:21:31.351Z,2.67
2023-11-22T19:24:02.402Z,2.23
2023-11-22T19:26:32.490Z,2.57
2023-11-22T19:28:59.672Z,2.30
2023-11-22T19:31:26.835Z,2.33
2023-11-22T19:33:53.854Z,2.13
2023-11-22T19:36:30.466Z,2.47
2023-11-22T19:38:57.545Z,2.03
2023-11-22T19:41:28.716Z,2.70
2023-11-22T19:43:58.045Z,2.40
2023-11-22T19:46:24.974Z,2.73
2023-11-22T19:48:52.169Z,2.37
2023-11-22T19:51:19.202Z,2.43
2023-11-22T19:53:46.125Z,1.80
2023-11-22T19:56:12.954Z,2.60
2023-11-22T19:58:39.701Z,2.20
2023-11-22T20:01:07.086Z,1.70
2023-11-22T20:03:34.440Z,1.60
2023-11-22T20:06:01.598Z,1.60
2023-11-22T20:08:28.498Z,1.37
2023-11-22T20:10:55.433Z,1.67
2023-11-22T20:13:22.442Z,1.70
2023-11-22T20:15:51.558Z,1.60
2023-11-22T20:18:18.701Z,1.40
2023-11-22T20:20:45.768Z,1.87
2023-11-22T20:23:17.448Z,1.37
2023-11-22T20:25:45.077Z,1.50
2023-11-22T20:28:12.209Z,1.93
2023-11-22T20:30:39.087Z,2.23
2023-11-22T20:33:06.078Z,2.17
2023-11-22T20:35:32.946Z,1.90
2023-11-22T20:37:59.759Z,1.27
2023-11-22T20:40:26.715Z,2.13
2023-11-22T20:42:53.731Z,1.60
2023-11-22T20:45:20.841Z,1.90
2023-11-22T20:47:48.129Z,1.40
2023-11-22T20:50:15.192Z,1.50
2023-11-22T20:52:41.983Z,2.07
2023-11-22T20:55:10.341Z,2.00
2023-11-22T20:57:38.773Z,1.50
2023-11-22T21:00:25.897Z,1.40
2023-11-22T21:02:52.935Z,1.43
2023-11-22T21:05:19.784Z,1.60
2023-11-22T21:07:46.884Z,1.90
2023-11-22T21:10:14.032Z,1.50
2023-11-22T21:12:41.003Z,1.70
2023-11-22T21:15:10.187Z,1.40
2023-11-22T21:17:42.504Z,1.73
2023-11-22T21:20:13.789Z,1.10
2023-11-22T21:22:40.990Z,1.60
2023-11-22T21:25:09.623Z,1.50
2023-11-22T21:27:36.655Z,1.57
2023-11-22T21:30:03.766Z,1.73
2023-11-22T21:32:31.248Z,2.13
2023-11-22T21:34:58.100Z,1.47
2023-11-22T21:37:25.063Z,1.73
2023-11-22T21:39:51.870Z,1.60
2023-11-22T21:42:18.954Z,1.47
2023-11-22T21:44:45.780Z,1.50
2023-11-22T21:47:12.665Z,1.27
2023-11-22T21:49:39.604Z,1.50
2023-11-22T21:52:06.900Z,1.30
2023-11-22T21:54:33.689Z,1.50
2023-11-22T21:57:00.638Z,1.23
2023-11-22T21:59:27.424Z,1.67
2023-11-22T22:01:54.264Z,1.73
2023-11-22T22:04:21.351Z,1.23
2023-11-22T22:06:48.336Z,1.70
2023-11-22T22:09:15.422Z,1.60
2023-11-22T22:11:42.987Z,2.10
2023-11-22T22:14:10.863Z,1.83
2023-11-22T22:16:37.718Z,1.50
2023-11-22T22:19:08.133Z,1.70
2023-11-22T22:21:35.281Z,1.60
2023-11-22T22:24:02.246Z,1.80
2023-11-22T22:26:30.003Z,1.47
2023-11-22T22:28:57.227Z,1.53
2023-11-22T22:31:24.132Z,1.50
2023-11-22T22:33:51.069Z,2.00
2023-11-22T22:36:20.878Z,1.87
2023-11-22T22:38:47.762Z,1.70
2023-11-22T22:41:19.331Z,1.90
2023-11-22T22:43:46.177Z,1.93
2023-11-22T22:46:14.556Z,2.03
2023-11-22T22:48:41.826Z,2.00
2023-11-22T22:51:13.542Z,1.80
2023-11-22T22:53:41.741Z,1.80
2023-11-22T22:56:08.721Z,2.43
2023-11-22T22:58:36.144Z,1.50
2023-11-22T23:01:03.449Z,2.13
2023-11-22T23:03:30.681Z,2.00
2023-11-22T23:05:57.710Z,1.90
2023-11-22T23:08:24.549Z,1.53
2023-11-22T23:10:52.595Z,1.43
2023-11-22T23:13:19.458Z,1.63
2023-11-22T23:15:46.266Z,1.73
2023-11-22T23:18:13.187Z,2.10
2023-11-22T23:20:48.562Z,1.77
2023-11-22T23:23:17.883Z,1.90
2023-11-22T23:25:44.947Z,1.87
2023-11-22T23:28:11.820Z,1.97
2023-11-22T23:30:38.758Z,1.60
2023-11-22T23:33:05.721Z,1.70
2023-11-22T23:35:33.094Z,1.67
2023-11-22T23:38:00.960Z,2.00
2023-11-22T23:40:27.794Z,1.93
2023-11-22T23:42:56.842Z,2.10
2023-11-22T23:45:24.355Z,1.90
2023-11-22T23:47:52.040Z,2.00
2023-11-22T23:50:19.473Z,2.00
2023-11-22T23:52:47.335Z,2.10
2023-11-22T23:55:15.535Z,2.00
2023-11-22T23:57:42.844Z,2.30
